<?xml version="1.0" encoding="UTF-8" standalone="no" ?>
<gpx xmlns="http://www.topografix.com/GPX/1/1" xmlns:xsi="http://www.w3.org/2001/XMLSchema-instance" xsi:schemaLocation="http://www.topografix.com/GPX/1/1 http://www.topografix.com/GPX/1/1/gpx.xsd" version="1.1" creator="VisuGPX - https://www.visugpx.com">
  <metadata>
    <name>VTT Cabrieres 23 Avril 2011</name>
    <desc><![CDATA[VTT Cabrieres 23 Avril 2011]]></desc>
  </metadata>
  <trk>
    <name><![CDATA[Trk1342]]></name>
    <trkseg>
      <trkpt lat="43.57703" lon="3.35882">
        <ele>144</ele>
        <time>2011-04-23T14:35:33Z</time>
      </trkpt>
      <trkpt lat="43.57677" lon="3.35832">
        <ele>143</ele>
        <time>2011-04-23T14:35:49Z</time>
      </trkpt>
      <trkpt lat="43.5769" lon="3.35857">
        <ele>143</ele>
        <time>2011-04-23T14:43:54Z</time>
      </trkpt>
      <trkpt lat="43.57663" lon="3.35902">
        <ele>130</ele>
        <time>2011-04-23T14:44:05Z</time>
      </trkpt>
      <trkpt lat="43.57612" lon="3.35923">
        <ele>123</ele>
        <time>2011-04-23T14:44:13Z</time>
      </trkpt>
      <trkpt lat="43.57663" lon="3.36118">
        <ele>122</ele>
        <time>2011-04-23T14:44:53Z</time>
      </trkpt>
      <trkpt lat="43.5766" lon="3.36182">
        <ele>122</ele>
        <time>2011-04-23T14:45:03Z</time>
      </trkpt>
      <trkpt lat="43.57578" lon="3.36278">
        <ele>115</ele>
        <time>2011-04-23T14:45:24Z</time>
      </trkpt>
      <trkpt lat="43.57568" lon="3.36362">
        <ele>111</ele>
        <time>2011-04-23T14:45:33Z</time>
      </trkpt>
      <trkpt lat="43.57418" lon="3.36365">
        <ele>108</ele>
        <time>2011-04-23T14:46:06Z</time>
      </trkpt>
      <trkpt lat="43.57362" lon="3.3638">
        <ele>107</ele>
        <time>2011-04-23T14:46:15Z</time>
      </trkpt>
      <trkpt lat="43.57083" lon="3.36305">
        <ele>109</ele>
        <time>2011-04-23T14:47:21Z</time>
      </trkpt>
      <trkpt lat="43.57118" lon="3.36318">
        <ele>109</ele>
        <time>2011-04-23T14:47:32Z</time>
      </trkpt>
      <trkpt lat="43.57095" lon="3.36287">
        <ele>112</ele>
        <time>2011-04-23T14:47:47Z</time>
      </trkpt>
      <trkpt lat="43.56985" lon="3.36258">
        <ele>111</ele>
        <time>2011-04-23T14:48:10Z</time>
      </trkpt>
      <trkpt lat="43.56912" lon="3.36282">
        <ele>111</ele>
        <time>2011-04-23T14:48:28Z</time>
      </trkpt>
      <trkpt lat="43.56877" lon="3.36267">
        <ele>111</ele>
        <time>2011-04-23T14:48:40Z</time>
      </trkpt>
      <trkpt lat="43.56825" lon="3.36225">
        <ele>117</ele>
        <time>2011-04-23T14:48:58Z</time>
      </trkpt>
      <trkpt lat="43.56775" lon="3.36135">
        <ele>118</ele>
        <time>2011-04-23T14:49:17Z</time>
      </trkpt>
      <trkpt lat="43.5676" lon="3.36015">
        <ele>118</ele>
        <time>2011-04-23T14:49:34Z</time>
      </trkpt>
      <trkpt lat="43.56725" lon="3.35853">
        <ele>119</ele>
        <time>2011-04-23T14:50:07Z</time>
      </trkpt>
      <trkpt lat="43.56707" lon="3.35773">
        <ele>119</ele>
        <time>2011-04-23T14:50:19Z</time>
      </trkpt>
      <trkpt lat="43.56702" lon="3.35688">
        <ele>121</ele>
        <time>2011-04-23T14:50:34Z</time>
      </trkpt>
      <trkpt lat="43.56707" lon="3.35648">
        <ele>123</ele>
        <time>2011-04-23T14:50:41Z</time>
      </trkpt>
      <trkpt lat="43.56698" lon="3.35578">
        <ele>126</ele>
        <time>2011-04-23T14:50:53Z</time>
      </trkpt>
      <trkpt lat="43.56698" lon="3.3554">
        <ele>127</ele>
        <time>2011-04-23T14:51:02Z</time>
      </trkpt>
      <trkpt lat="43.567" lon="3.35432">
        <ele>132</ele>
        <time>2011-04-23T14:51:33Z</time>
      </trkpt>
      <trkpt lat="43.56693" lon="3.35333">
        <ele>138</ele>
        <time>2011-04-23T14:51:55Z</time>
      </trkpt>
      <trkpt lat="43.56675" lon="3.35295">
        <ele>138</ele>
        <time>2011-04-23T14:52:05Z</time>
      </trkpt>
      <trkpt lat="43.56648" lon="3.35228">
        <ele>135</ele>
        <time>2011-04-23T14:52:22Z</time>
      </trkpt>
      <trkpt lat="43.56572" lon="3.35203">
        <ele>128</ele>
        <time>2011-04-23T14:52:42Z</time>
      </trkpt>
      <trkpt lat="43.56537" lon="3.35223">
        <ele>126</ele>
        <time>2011-04-23T14:52:50Z</time>
      </trkpt>
      <trkpt lat="43.56492" lon="3.3527">
        <ele>121</ele>
        <time>2011-04-23T14:53:07Z</time>
      </trkpt>
      <trkpt lat="43.56483" lon="3.3532">
        <ele>120</ele>
        <time>2011-04-23T14:53:20Z</time>
      </trkpt>
      <trkpt lat="43.56463" lon="3.35263">
        <ele>119</ele>
        <time>2011-04-23T14:53:35Z</time>
      </trkpt>
      <trkpt lat="43.56437" lon="3.35212">
        <ele>119</ele>
        <time>2011-04-23T14:53:48Z</time>
      </trkpt>
      <trkpt lat="43.5641" lon="3.35107">
        <ele>116</ele>
        <time>2011-04-23T14:54:09Z</time>
      </trkpt>
      <trkpt lat="43.56393" lon="3.35053">
        <ele>118</ele>
        <time>2011-04-23T14:54:22Z</time>
      </trkpt>
      <trkpt lat="43.56417" lon="3.35008">
        <ele>123</ele>
        <time>2011-04-23T14:54:34Z</time>
      </trkpt>
      <trkpt lat="43.56368" lon="3.34888">
        <ele>125</ele>
        <time>2011-04-23T14:54:56Z</time>
      </trkpt>
      <trkpt lat="43.56345" lon="3.34825">
        <ele>131</ele>
        <time>2011-04-23T14:55:09Z</time>
      </trkpt>
      <trkpt lat="43.56273" lon="3.3479">
        <ele>128</ele>
        <time>2011-04-23T14:55:25Z</time>
      </trkpt>
      <trkpt lat="43.56252" lon="3.34708">
        <ele>133</ele>
        <time>2011-04-23T14:55:37Z</time>
      </trkpt>
      <trkpt lat="43.56252" lon="3.34662">
        <ele>132</ele>
        <time>2011-04-23T14:55:48Z</time>
      </trkpt>
      <trkpt lat="43.5623" lon="3.34633">
        <ele>134</ele>
        <time>2011-04-23T14:56:01Z</time>
      </trkpt>
      <trkpt lat="43.56207" lon="3.34588">
        <ele>135</ele>
        <time>2011-04-23T14:56:15Z</time>
      </trkpt>
      <trkpt lat="43.56202" lon="3.3452">
        <ele>139</ele>
        <time>2011-04-23T14:56:31Z</time>
      </trkpt>
      <trkpt lat="43.56208" lon="3.34352">
        <ele>144</ele>
        <time>2011-04-23T14:56:58Z</time>
      </trkpt>
      <trkpt lat="43.56202" lon="3.34267">
        <ele>146</ele>
        <time>2011-04-23T14:57:13Z</time>
      </trkpt>
      <trkpt lat="43.56197" lon="3.34217">
        <ele>147</ele>
        <time>2011-04-23T14:57:24Z</time>
      </trkpt>
      <trkpt lat="43.56227" lon="3.34138">
        <ele>151</ele>
        <time>2011-04-23T14:57:39Z</time>
      </trkpt>
      <trkpt lat="43.5625" lon="3.34103">
        <ele>149</ele>
        <time>2011-04-23T14:57:45Z</time>
      </trkpt>
      <trkpt lat="43.56282" lon="3.34072">
        <ele>150</ele>
        <time>2011-04-23T14:57:55Z</time>
      </trkpt>
      <trkpt lat="43.56313" lon="3.34033">
        <ele>149</ele>
        <time>2011-04-23T14:58:05Z</time>
      </trkpt>
      <trkpt lat="43.56368" lon="3.34033">
        <ele>143</ele>
        <time>2011-04-23T14:58:17Z</time>
      </trkpt>
      <trkpt lat="43.5639" lon="3.34003">
        <ele>143</ele>
        <time>2011-04-23T14:58:34Z</time>
      </trkpt>
      <trkpt lat="43.56383" lon="3.3386">
        <ele>143</ele>
        <time>2011-04-23T14:59:09Z</time>
      </trkpt>
      <trkpt lat="43.56415" lon="3.3382">
        <ele>143</ele>
        <time>2011-04-23T14:59:19Z</time>
      </trkpt>
      <trkpt lat="43.56462" lon="3.33812">
        <ele>145</ele>
        <time>2011-04-23T14:59:32Z</time>
      </trkpt>
      <trkpt lat="43.56503" lon="3.33778">
        <ele>148</ele>
        <time>2011-04-23T14:59:44Z</time>
      </trkpt>
      <trkpt lat="43.56528" lon="3.33742">
        <ele>149</ele>
        <time>2011-04-23T14:59:55Z</time>
      </trkpt>
      <trkpt lat="43.565" lon="3.33622">
        <ele>152</ele>
        <time>2011-04-23T15:00:19Z</time>
      </trkpt>
      <trkpt lat="43.56477" lon="3.33582">
        <ele>156</ele>
        <time>2011-04-23T15:00:28Z</time>
      </trkpt>
      <trkpt lat="43.56455" lon="3.33525">
        <ele>157</ele>
        <time>2011-04-23T15:00:42Z</time>
      </trkpt>
      <trkpt lat="43.56332" lon="3.33268">
        <ele>163</ele>
        <time>2011-04-23T15:01:26Z</time>
      </trkpt>
      <trkpt lat="43.56313" lon="3.33177">
        <ele>168</ele>
        <time>2011-04-23T15:01:38Z</time>
      </trkpt>
      <trkpt lat="43.563" lon="3.33098">
        <ele>170</ele>
        <time>2011-04-23T15:01:53Z</time>
      </trkpt>
      <trkpt lat="43.56308" lon="3.33038">
        <ele>171</ele>
        <time>2011-04-23T15:02:03Z</time>
      </trkpt>
      <trkpt lat="43.563" lon="3.33002">
        <ele>171</ele>
        <time>2011-04-23T15:02:15Z</time>
      </trkpt>
      <trkpt lat="43.56273" lon="3.32983">
        <ele>169</ele>
        <time>2011-04-23T15:02:28Z</time>
      </trkpt>
      <trkpt lat="43.56268" lon="3.32923">
        <ele>170</ele>
        <time>2011-04-23T15:02:44Z</time>
      </trkpt>
      <trkpt lat="43.56265" lon="3.32833">
        <ele>172</ele>
        <time>2011-04-23T15:03:07Z</time>
      </trkpt>
      <trkpt lat="43.5628" lon="3.32787">
        <ele>171</ele>
        <time>2011-04-23T15:03:17Z</time>
      </trkpt>
      <trkpt lat="43.56268" lon="3.32592">
        <ele>181</ele>
        <time>2011-04-23T15:03:58Z</time>
      </trkpt>
      <trkpt lat="43.5627" lon="3.32452">
        <ele>182</ele>
        <time>2011-04-23T15:04:29Z</time>
      </trkpt>
      <trkpt lat="43.56283" lon="3.32387">
        <ele>185</ele>
        <time>2011-04-23T15:05:01Z</time>
      </trkpt>
      <trkpt lat="43.56267" lon="3.32398">
        <ele>185</ele>
        <time>2011-04-23T15:06:17Z</time>
      </trkpt>
      <trkpt lat="43.56235" lon="3.32512">
        <ele>191</ele>
        <time>2011-04-23T15:06:46Z</time>
      </trkpt>
      <trkpt lat="43.56218" lon="3.32535">
        <ele>195</ele>
        <time>2011-04-23T15:06:59Z</time>
      </trkpt>
      <trkpt lat="43.56225" lon="3.3249">
        <ele>196</ele>
        <time>2011-04-23T15:07:15Z</time>
      </trkpt>
      <trkpt lat="43.56225" lon="3.3238">
        <ele>201</ele>
        <time>2011-04-23T15:07:46Z</time>
      </trkpt>
      <trkpt lat="43.56203" lon="3.32435">
        <ele>203</ele>
        <time>2011-04-23T15:08:12Z</time>
      </trkpt>
      <trkpt lat="43.56193" lon="3.3247">
        <ele>204</ele>
        <time>2011-04-23T15:08:26Z</time>
      </trkpt>
      <trkpt lat="43.56125" lon="3.32577">
        <ele>221</ele>
        <time>2011-04-23T15:09:09Z</time>
      </trkpt>
      <trkpt lat="43.56045" lon="3.32625">
        <ele>233</ele>
        <time>2011-04-23T15:09:51Z</time>
      </trkpt>
      <trkpt lat="43.56027" lon="3.32702">
        <ele>228</ele>
        <time>2011-04-23T15:10:16Z</time>
      </trkpt>
      <trkpt lat="43.56042" lon="3.3275">
        <ele>226</ele>
        <time>2011-04-23T15:10:31Z</time>
      </trkpt>
      <trkpt lat="43.56045" lon="3.32802">
        <ele>226</ele>
        <time>2011-04-23T15:10:45Z</time>
      </trkpt>
      <trkpt lat="43.56033" lon="3.32845">
        <ele>228</ele>
        <time>2011-04-23T15:10:58Z</time>
      </trkpt>
      <trkpt lat="43.5601" lon="3.32883">
        <ele>230</ele>
        <time>2011-04-23T15:11:14Z</time>
      </trkpt>
      <trkpt lat="43.55977" lon="3.32898">
        <ele>245</ele>
        <time>2011-04-23T15:11:28Z</time>
      </trkpt>
      <trkpt lat="43.55945" lon="3.32928">
        <ele>244</ele>
        <time>2011-04-23T15:11:41Z</time>
      </trkpt>
      <trkpt lat="43.55928" lon="3.32963">
        <ele>243</ele>
        <time>2011-04-23T15:11:49Z</time>
      </trkpt>
      <trkpt lat="43.55902" lon="3.33018">
        <ele>246</ele>
        <time>2011-04-23T15:12:07Z</time>
      </trkpt>
      <trkpt lat="43.55865" lon="3.3307">
        <ele>248</ele>
        <time>2011-04-23T15:12:24Z</time>
      </trkpt>
      <trkpt lat="43.5581" lon="3.33188">
        <ele>252</ele>
        <time>2011-04-23T15:13:03Z</time>
      </trkpt>
      <trkpt lat="43.55773" lon="3.33305">
        <ele>256</ele>
        <time>2011-04-23T15:13:42Z</time>
      </trkpt>
      <trkpt lat="43.55747" lon="3.33355">
        <ele>256</ele>
        <time>2011-04-23T15:14:00Z</time>
      </trkpt>
      <trkpt lat="43.55717" lon="3.334">
        <ele>256</ele>
        <time>2011-04-23T15:14:16Z</time>
      </trkpt>
      <trkpt lat="43.55697" lon="3.33455">
        <ele>259</ele>
        <time>2011-04-23T15:14:33Z</time>
      </trkpt>
      <trkpt lat="43.55685" lon="3.33557">
        <ele>262</ele>
        <time>2011-04-23T15:15:04Z</time>
      </trkpt>
      <trkpt lat="43.55667" lon="3.33643">
        <ele>264</ele>
        <time>2011-04-23T15:15:42Z</time>
      </trkpt>
      <trkpt lat="43.55685" lon="3.33545">
        <ele>262</ele>
        <time>2011-04-23T15:16:03Z</time>
      </trkpt>
      <trkpt lat="43.55692" lon="3.33462">
        <ele>259</ele>
        <time>2011-04-23T15:16:17Z</time>
      </trkpt>
      <trkpt lat="43.55668" lon="3.33495">
        <ele>262</ele>
        <time>2011-04-23T15:16:41Z</time>
      </trkpt>
      <trkpt lat="43.55597" lon="3.33537">
        <ele>265</ele>
        <time>2011-04-23T15:17:08Z</time>
      </trkpt>
      <trkpt lat="43.55487" lon="3.33498">
        <ele>260</ele>
        <time>2011-04-23T15:17:36Z</time>
      </trkpt>
      <trkpt lat="43.55408" lon="3.33505">
        <ele>259</ele>
        <time>2011-04-23T15:17:49Z</time>
      </trkpt>
      <trkpt lat="43.55387" lon="3.33528">
        <ele>261</ele>
        <time>2011-04-23T15:18:01Z</time>
      </trkpt>
      <trkpt lat="43.55327" lon="3.33538">
        <ele>263</ele>
        <time>2011-04-23T15:18:37Z</time>
      </trkpt>
      <trkpt lat="43.55308" lon="3.33523">
        <ele>262</ele>
        <time>2011-04-23T15:18:47Z</time>
      </trkpt>
      <trkpt lat="43.5529" lon="3.33497">
        <ele>255</ele>
        <time>2011-04-23T15:19:00Z</time>
      </trkpt>
      <trkpt lat="43.55257" lon="3.3351">
        <ele>262</ele>
        <time>2011-04-23T15:19:10Z</time>
      </trkpt>
      <trkpt lat="43.55223" lon="3.33513">
        <ele>261</ele>
        <time>2011-04-23T15:19:20Z</time>
      </trkpt>
      <trkpt lat="43.55198" lon="3.33537">
        <ele>262</ele>
        <time>2011-04-23T15:19:39Z</time>
      </trkpt>
      <trkpt lat="43.5523" lon="3.33517">
        <ele>261</ele>
        <time>2011-04-23T15:20:03Z</time>
      </trkpt>
      <trkpt lat="43.5526" lon="3.33518">
        <ele>262</ele>
        <time>2011-04-23T15:20:14Z</time>
      </trkpt>
      <trkpt lat="43.55287" lon="3.33503">
        <ele>262</ele>
        <time>2011-04-23T15:20:25Z</time>
      </trkpt>
      <trkpt lat="43.55317" lon="3.33548">
        <ele>264</ele>
        <time>2011-04-23T15:20:41Z</time>
      </trkpt>
      <trkpt lat="43.55385" lon="3.33543">
        <ele>262</ele>
        <time>2011-04-23T15:20:51Z</time>
      </trkpt>
      <trkpt lat="43.55402" lon="3.33522">
        <ele>261</ele>
        <time>2011-04-23T15:20:59Z</time>
      </trkpt>
      <trkpt lat="43.55437" lon="3.3351">
        <ele>261</ele>
        <time>2011-04-23T15:21:09Z</time>
      </trkpt>
      <trkpt lat="43.55498" lon="3.3337">
        <ele>253</ele>
        <time>2011-04-23T15:21:28Z</time>
      </trkpt>
      <trkpt lat="43.55535" lon="3.33302">
        <ele>255</ele>
        <time>2011-04-23T15:21:44Z</time>
      </trkpt>
      <trkpt lat="43.55533" lon="3.33282">
        <ele>255</ele>
        <time>2011-04-23T15:22:28Z</time>
      </trkpt>
      <trkpt lat="43.55522" lon="3.33238">
        <ele>255</ele>
        <time>2011-04-23T15:22:46Z</time>
      </trkpt>
      <trkpt lat="43.55482" lon="3.33205">
        <ele>252</ele>
        <time>2011-04-23T15:22:59Z</time>
      </trkpt>
      <trkpt lat="43.55433" lon="3.33218">
        <ele>252</ele>
        <time>2011-04-23T15:23:07Z</time>
      </trkpt>
      <trkpt lat="43.55427" lon="3.33193">
        <ele>253</ele>
        <time>2011-04-23T15:23:20Z</time>
      </trkpt>
      <trkpt lat="43.55415" lon="3.33155">
        <ele>256</ele>
        <time>2011-04-23T15:23:37Z</time>
      </trkpt>
      <trkpt lat="43.55277" lon="3.33203">
        <ele>259</ele>
        <time>2011-04-23T15:24:16Z</time>
      </trkpt>
      <trkpt lat="43.55168" lon="3.33247">
        <ele>249</ele>
        <time>2011-04-23T15:24:43Z</time>
      </trkpt>
      <trkpt lat="43.55092" lon="3.3324">
        <ele>242</ele>
        <time>2011-04-23T15:24:55Z</time>
      </trkpt>
      <trkpt lat="43.55045" lon="3.33195">
        <ele>244</ele>
        <time>2011-04-23T15:25:04Z</time>
      </trkpt>
      <trkpt lat="43.54922" lon="3.3322">
        <ele>247</ele>
        <time>2011-04-23T15:25:30Z</time>
      </trkpt>
      <trkpt lat="43.54885" lon="3.33157">
        <ele>251</ele>
        <time>2011-04-23T15:25:57Z</time>
      </trkpt>
      <trkpt lat="43.54872" lon="3.3313">
        <ele>251</ele>
        <time>2011-04-23T15:26:09Z</time>
      </trkpt>
      <trkpt lat="43.5492" lon="3.33047">
        <ele>256</ele>
        <time>2011-04-23T15:26:37Z</time>
      </trkpt>
      <trkpt lat="43.54928" lon="3.3288">
        <ele>267</ele>
        <time>2011-04-23T15:27:16Z</time>
      </trkpt>
      <trkpt lat="43.54932" lon="3.32855">
        <ele>267</ele>
        <time>2011-04-23T15:27:23Z</time>
      </trkpt>
      <trkpt lat="43.54953" lon="3.32882">
        <ele>268</ele>
        <time>2011-04-23T15:27:41Z</time>
      </trkpt>
      <trkpt lat="43.54985" lon="3.3291">
        <ele>270</ele>
        <time>2011-04-23T15:27:52Z</time>
      </trkpt>
      <trkpt lat="43.55083" lon="3.32917">
        <ele>284</ele>
        <time>2011-04-23T15:28:27Z</time>
      </trkpt>
      <trkpt lat="43.55105" lon="3.32975">
        <ele>283</ele>
        <time>2011-04-23T15:28:45Z</time>
      </trkpt>
      <trkpt lat="43.55125" lon="3.33012">
        <ele>278</ele>
        <time>2011-04-23T15:28:56Z</time>
      </trkpt>
      <trkpt lat="43.55157" lon="3.33047">
        <ele>279</ele>
        <time>2011-04-23T15:29:09Z</time>
      </trkpt>
      <trkpt lat="43.55188" lon="3.33063">
        <ele>287</ele>
        <time>2011-04-23T15:29:23Z</time>
      </trkpt>
      <trkpt lat="43.55208" lon="3.33067">
        <ele>288</ele>
        <time>2011-04-23T15:29:32Z</time>
      </trkpt>
      <trkpt lat="43.55235" lon="3.33037">
        <ele>291</ele>
        <time>2011-04-23T15:29:47Z</time>
      </trkpt>
      <trkpt lat="43.55243" lon="3.32985">
        <ele>297</ele>
        <time>2011-04-23T15:30:03Z</time>
      </trkpt>
      <trkpt lat="43.55233" lon="3.32932">
        <ele>296</ele>
        <time>2011-04-23T15:30:17Z</time>
      </trkpt>
      <trkpt lat="43.5523" lon="3.32893">
        <ele>296</ele>
        <time>2011-04-23T15:30:29Z</time>
      </trkpt>
      <trkpt lat="43.55205" lon="3.32883">
        <ele>298</ele>
        <time>2011-04-23T15:30:44Z</time>
      </trkpt>
      <trkpt lat="43.55183" lon="3.3286">
        <ele>299</ele>
        <time>2011-04-23T15:31:00Z</time>
      </trkpt>
      <trkpt lat="43.5518" lon="3.32807">
        <ele>301</ele>
        <time>2011-04-23T15:31:17Z</time>
      </trkpt>
      <trkpt lat="43.55195" lon="3.32752">
        <ele>302</ele>
        <time>2011-04-23T15:31:29Z</time>
      </trkpt>
      <trkpt lat="43.55228" lon="3.32693">
        <ele>302</ele>
        <time>2011-04-23T15:31:53Z</time>
      </trkpt>
      <trkpt lat="43.55215" lon="3.3258">
        <ele>309</ele>
        <time>2011-04-23T15:31:58Z</time>
      </trkpt>
      <trkpt lat="43.55225" lon="3.32543">
        <ele>308</ele>
        <time>2011-04-23T15:32:04Z</time>
      </trkpt>
      <trkpt lat="43.5526" lon="3.32527">
        <ele>303</ele>
        <time>2011-04-23T15:32:19Z</time>
      </trkpt>
      <trkpt lat="43.5527" lon="3.32568">
        <ele>302</ele>
        <time>2011-04-23T15:32:48Z</time>
      </trkpt>
      <trkpt lat="43.55267" lon="3.32595">
        <ele>300</ele>
        <time>2011-04-23T15:33:05Z</time>
      </trkpt>
      <trkpt lat="43.55278" lon="3.32558">
        <ele>301</ele>
        <time>2011-04-23T15:33:20Z</time>
      </trkpt>
      <trkpt lat="43.55287" lon="3.32492">
        <ele>301</ele>
        <time>2011-04-23T15:33:37Z</time>
      </trkpt>
      <trkpt lat="43.55282" lon="3.32457">
        <ele>301</ele>
        <time>2011-04-23T15:33:45Z</time>
      </trkpt>
      <trkpt lat="43.55318" lon="3.32457">
        <ele>299</ele>
        <time>2011-04-23T15:33:54Z</time>
      </trkpt>
      <trkpt lat="43.55347" lon="3.32432">
        <ele>292</ele>
        <time>2011-04-23T15:34:06Z</time>
      </trkpt>
      <trkpt lat="43.55373" lon="3.32422">
        <ele>291</ele>
        <time>2011-04-23T15:34:15Z</time>
      </trkpt>
      <trkpt lat="43.55403" lon="3.32552">
        <ele>290</ele>
        <time>2011-04-23T15:34:37Z</time>
      </trkpt>
      <trkpt lat="43.55402" lon="3.32598">
        <ele>287</ele>
        <time>2011-04-23T15:34:48Z</time>
      </trkpt>
      <trkpt lat="43.55392" lon="3.32655">
        <ele>286</ele>
        <time>2011-04-23T15:34:57Z</time>
      </trkpt>
      <trkpt lat="43.554" lon="3.32727">
        <ele>281</ele>
        <time>2011-04-23T15:35:06Z</time>
      </trkpt>
      <trkpt lat="43.55412" lon="3.32737">
        <ele>280</ele>
        <time>2011-04-23T15:35:16Z</time>
      </trkpt>
      <trkpt lat="43.55465" lon="3.32725">
        <ele>276</ele>
        <time>2011-04-23T15:36:06Z</time>
      </trkpt>
      <trkpt lat="43.5546" lon="3.32702">
        <ele>277</ele>
        <time>2011-04-23T15:36:25Z</time>
      </trkpt>
      <trkpt lat="43.55452" lon="3.3267">
        <ele>279</ele>
        <time>2011-04-23T15:36:39Z</time>
      </trkpt>
      <trkpt lat="43.55423" lon="3.32543">
        <ele>285</ele>
        <time>2011-04-23T15:37:14Z</time>
      </trkpt>
      <trkpt lat="43.55418" lon="3.32495">
        <ele>289</ele>
        <time>2011-04-23T15:37:28Z</time>
      </trkpt>
      <trkpt lat="43.55413" lon="3.3246">
        <ele>290</ele>
        <time>2011-04-23T15:37:45Z</time>
      </trkpt>
      <trkpt lat="43.55393" lon="3.3244">
        <ele>290</ele>
        <time>2011-04-23T15:37:57Z</time>
      </trkpt>
      <trkpt lat="43.55372" lon="3.3245">
        <ele>291</ele>
        <time>2011-04-23T15:38:18Z</time>
      </trkpt>
      <trkpt lat="43.55357" lon="3.32458">
        <ele>292</ele>
        <time>2011-04-23T15:38:41Z</time>
      </trkpt>
      <trkpt lat="43.5539" lon="3.32428">
        <ele>290</ele>
        <time>2011-04-23T15:41:54Z</time>
      </trkpt>
      <trkpt lat="43.55417" lon="3.32442">
        <ele>284</ele>
        <time>2011-04-23T15:41:59Z</time>
      </trkpt>
      <trkpt lat="43.5543" lon="3.32548">
        <ele>285</ele>
        <time>2011-04-23T15:42:19Z</time>
      </trkpt>
      <trkpt lat="43.55427" lon="3.32647">
        <ele>283</ele>
        <time>2011-04-23T15:42:31Z</time>
      </trkpt>
      <trkpt lat="43.55455" lon="3.32703">
        <ele>277</ele>
        <time>2011-04-23T15:42:39Z</time>
      </trkpt>
      <trkpt lat="43.55513" lon="3.32613">
        <ele>272</ele>
        <time>2011-04-23T15:42:57Z</time>
      </trkpt>
      <trkpt lat="43.5553" lon="3.3256">
        <ele>272</ele>
        <time>2011-04-23T15:43:07Z</time>
      </trkpt>
      <trkpt lat="43.55532" lon="3.32507">
        <ele>272</ele>
        <time>2011-04-23T15:43:20Z</time>
      </trkpt>
      <trkpt lat="43.55502" lon="3.32422">
        <ele>276</ele>
        <time>2011-04-23T15:43:45Z</time>
      </trkpt>
      <trkpt lat="43.55475" lon="3.32387">
        <ele>278</ele>
        <time>2011-04-23T15:44:00Z</time>
      </trkpt>
      <trkpt lat="43.5544" lon="3.32375">
        <ele>279</ele>
        <time>2011-04-23T15:44:12Z</time>
      </trkpt>
      <trkpt lat="43.55405" lon="3.32375">
        <ele>284</ele>
        <time>2011-04-23T15:44:24Z</time>
      </trkpt>
      <trkpt lat="43.55377" lon="3.32352">
        <ele>285</ele>
        <time>2011-04-23T15:44:38Z</time>
      </trkpt>
      <trkpt lat="43.55352" lon="3.32338">
        <ele>286</ele>
        <time>2011-04-23T15:44:48Z</time>
      </trkpt>
      <trkpt lat="43.55328" lon="3.32315">
        <ele>288</ele>
        <time>2011-04-23T15:45:03Z</time>
      </trkpt>
      <trkpt lat="43.553" lon="3.32318">
        <ele>290</ele>
        <time>2011-04-23T15:45:16Z</time>
      </trkpt>
      <trkpt lat="43.55265" lon="3.3233">
        <ele>293</ele>
        <time>2011-04-23T15:45:30Z</time>
      </trkpt>
      <trkpt lat="43.5525" lon="3.32343">
        <ele>295</ele>
        <time>2011-04-23T15:45:38Z</time>
      </trkpt>
      <trkpt lat="43.55235" lon="3.32343">
        <ele>297</ele>
        <time>2011-04-23T15:46:11Z</time>
      </trkpt>
      <trkpt lat="43.55287" lon="3.32318">
        <ele>291</ele>
        <time>2011-04-23T15:46:29Z</time>
      </trkpt>
      <trkpt lat="43.55327" lon="3.32315">
        <ele>289</ele>
        <time>2011-04-23T15:46:42Z</time>
      </trkpt>
      <trkpt lat="43.5536" lon="3.32345">
        <ele>286</ele>
        <time>2011-04-23T15:46:51Z</time>
      </trkpt>
      <trkpt lat="43.55382" lon="3.32358">
        <ele>285</ele>
        <time>2011-04-23T15:46:53Z</time>
      </trkpt>
      <trkpt lat="43.55427" lon="3.3239">
        <ele>280</ele>
        <time>2011-04-23T15:47:02Z</time>
      </trkpt>
      <trkpt lat="43.5549" lon="3.32402">
        <ele>278</ele>
        <time>2011-04-23T15:47:20Z</time>
      </trkpt>
      <trkpt lat="43.55478" lon="3.32352">
        <ele>277</ele>
        <time>2011-04-23T15:47:43Z</time>
      </trkpt>
      <trkpt lat="43.55435" lon="3.32318">
        <ele>277</ele>
        <time>2011-04-23T15:48:05Z</time>
      </trkpt>
      <trkpt lat="43.5541" lon="3.3228">
        <ele>280</ele>
        <time>2011-04-23T15:48:18Z</time>
      </trkpt>
      <trkpt lat="43.5538" lon="3.32263">
        <ele>281</ele>
        <time>2011-04-23T15:48:33Z</time>
      </trkpt>
      <trkpt lat="43.55382" lon="3.32227">
        <ele>282</ele>
        <time>2011-04-23T15:48:49Z</time>
      </trkpt>
      <trkpt lat="43.55353" lon="3.32168">
        <ele>284</ele>
        <time>2011-04-23T15:49:10Z</time>
      </trkpt>
      <trkpt lat="43.55323" lon="3.32143">
        <ele>290</ele>
        <time>2011-04-23T15:49:26Z</time>
      </trkpt>
      <trkpt lat="43.553" lon="3.32147">
        <ele>291</ele>
        <time>2011-04-23T15:49:42Z</time>
      </trkpt>
      <trkpt lat="43.55278" lon="3.3217">
        <ele>293</ele>
        <time>2011-04-23T15:49:59Z</time>
      </trkpt>
      <trkpt lat="43.55238" lon="3.32173">
        <ele>299</ele>
        <time>2011-04-23T15:50:27Z</time>
      </trkpt>
      <trkpt lat="43.55205" lon="3.32162">
        <ele>300</ele>
        <time>2011-04-23T15:50:50Z</time>
      </trkpt>
      <trkpt lat="43.55185" lon="3.32163">
        <ele>302</ele>
        <time>2011-04-23T15:51:01Z</time>
      </trkpt>
      <trkpt lat="43.55087" lon="3.32273">
        <ele>307</ele>
        <time>2011-04-23T15:51:44Z</time>
      </trkpt>
      <trkpt lat="43.55053" lon="3.32293">
        <ele>308</ele>
        <time>2011-04-23T15:51:57Z</time>
      </trkpt>
      <trkpt lat="43.55037" lon="3.32262">
        <ele>307</ele>
        <time>2011-04-23T15:52:02Z</time>
      </trkpt>
      <trkpt lat="43.5502" lon="3.32207">
        <ele>307</ele>
        <time>2011-04-23T15:52:14Z</time>
      </trkpt>
      <trkpt lat="43.5495" lon="3.32147">
        <ele>306</ele>
        <time>2011-04-23T15:52:36Z</time>
      </trkpt>
      <trkpt lat="43.5494" lon="3.32118">
        <ele>306</ele>
        <time>2011-04-23T15:52:50Z</time>
      </trkpt>
      <trkpt lat="43.54958" lon="3.32087">
        <ele>307</ele>
        <time>2011-04-23T15:53:05Z</time>
      </trkpt>
      <trkpt lat="43.54988" lon="3.32072">
        <ele>307</ele>
        <time>2011-04-23T15:53:16Z</time>
      </trkpt>
      <trkpt lat="43.55017" lon="3.32065">
        <ele>305</ele>
        <time>2011-04-23T15:53:46Z</time>
      </trkpt>
      <trkpt lat="43.54995" lon="3.32057">
        <ele>307</ele>
        <time>2011-04-23T15:54:01Z</time>
      </trkpt>
      <trkpt lat="43.5499" lon="3.32017">
        <ele>307</ele>
        <time>2011-04-23T15:54:11Z</time>
      </trkpt>
      <trkpt lat="43.55003" lon="3.31962">
        <ele>306</ele>
        <time>2011-04-23T15:54:26Z</time>
      </trkpt>
      <trkpt lat="43.55038" lon="3.31922">
        <ele>306</ele>
        <time>2011-04-23T15:54:39Z</time>
      </trkpt>
      <trkpt lat="43.55098" lon="3.3189">
        <ele>310</ele>
        <time>2011-04-23T15:55:01Z</time>
      </trkpt>
      <trkpt lat="43.55132" lon="3.3187">
        <ele>312</ele>
        <time>2011-04-23T15:55:19Z</time>
      </trkpt>
      <trkpt lat="43.55148" lon="3.31863">
        <ele>313</ele>
        <time>2011-04-23T15:55:29Z</time>
      </trkpt>
      <trkpt lat="43.55173" lon="3.31858">
        <ele>318</ele>
        <time>2011-04-23T15:55:45Z</time>
      </trkpt>
      <trkpt lat="43.55198" lon="3.31862">
        <ele>319</ele>
        <time>2011-04-23T15:56:25Z</time>
      </trkpt>
      <trkpt lat="43.55232" lon="3.31853">
        <ele>321</ele>
        <time>2011-04-23T15:56:45Z</time>
      </trkpt>
      <trkpt lat="43.55278" lon="3.31858">
        <ele>323</ele>
        <time>2011-04-23T15:58:10Z</time>
      </trkpt>
      <trkpt lat="43.5535" lon="3.31838">
        <ele>322</ele>
        <time>2011-04-23T15:58:35Z</time>
      </trkpt>
      <trkpt lat="43.55407" lon="3.31797">
        <ele>325</ele>
        <time>2011-04-23T15:58:47Z</time>
      </trkpt>
      <trkpt lat="43.55428" lon="3.31777">
        <ele>323</ele>
        <time>2011-04-23T15:58:58Z</time>
      </trkpt>
      <trkpt lat="43.55488" lon="3.31712">
        <ele>330</ele>
        <time>2011-04-23T15:59:36Z</time>
      </trkpt>
      <trkpt lat="43.55512" lon="3.31687">
        <ele>330</ele>
        <time>2011-04-23T15:59:51Z</time>
      </trkpt>
      <trkpt lat="43.55568" lon="3.3168">
        <ele>329</ele>
        <time>2011-04-23T16:00:17Z</time>
      </trkpt>
      <trkpt lat="43.55605" lon="3.31682">
        <ele>325</ele>
        <time>2011-04-23T16:00:25Z</time>
      </trkpt>
      <trkpt lat="43.5568" lon="3.31665">
        <ele>315</ele>
        <time>2011-04-23T16:00:42Z</time>
      </trkpt>
      <trkpt lat="43.55758" lon="3.31685">
        <ele>310</ele>
        <time>2011-04-23T16:00:57Z</time>
      </trkpt>
      <trkpt lat="43.55763" lon="3.31657">
        <ele>310</ele>
        <time>2011-04-23T16:01:21Z</time>
      </trkpt>
      <trkpt lat="43.55775" lon="3.31608">
        <ele>308</ele>
        <time>2011-04-23T16:01:34Z</time>
      </trkpt>
      <trkpt lat="43.55788" lon="3.31437">
        <ele>307</ele>
        <time>2011-04-23T16:02:07Z</time>
      </trkpt>
      <trkpt lat="43.55802" lon="3.3134">
        <ele>304</ele>
        <time>2011-04-23T16:02:24Z</time>
      </trkpt>
      <trkpt lat="43.55838" lon="3.3126">
        <ele>301</ele>
        <time>2011-04-23T16:02:41Z</time>
      </trkpt>
      <trkpt lat="43.55867" lon="3.3117">
        <ele>295</ele>
        <time>2011-04-23T16:02:56Z</time>
      </trkpt>
      <trkpt lat="43.55905" lon="3.31105">
        <ele>290</ele>
        <time>2011-04-23T16:03:12Z</time>
      </trkpt>
      <trkpt lat="43.5595" lon="3.31122">
        <ele>282</ele>
        <time>2011-04-23T16:03:25Z</time>
      </trkpt>
      <trkpt lat="43.55962" lon="3.3115">
        <ele>281</ele>
        <time>2011-04-23T16:03:36Z</time>
      </trkpt>
      <trkpt lat="43.5598" lon="3.31113">
        <ele>278</ele>
        <time>2011-04-23T16:03:51Z</time>
      </trkpt>
      <trkpt lat="43.55987" lon="3.31082">
        <ele>275</ele>
        <time>2011-04-23T16:03:56Z</time>
      </trkpt>
      <trkpt lat="43.56003" lon="3.31068">
        <ele>272</ele>
        <time>2011-04-23T16:04:15Z</time>
      </trkpt>
      <trkpt lat="43.56037" lon="3.31068">
        <ele>271</ele>
        <time>2011-04-23T16:04:33Z</time>
      </trkpt>
      <trkpt lat="43.56085" lon="3.3105">
        <ele>273</ele>
        <time>2011-04-23T16:04:46Z</time>
      </trkpt>
      <trkpt lat="43.5612" lon="3.31043">
        <ele>275</ele>
        <time>2011-04-23T16:04:54Z</time>
      </trkpt>
      <trkpt lat="43.56132" lon="3.31068">
        <ele>274</ele>
        <time>2011-04-23T16:05:04Z</time>
      </trkpt>
      <trkpt lat="43.56153" lon="3.31078">
        <ele>276</ele>
        <time>2011-04-23T16:06:50Z</time>
      </trkpt>
      <trkpt lat="43.56168" lon="3.31115">
        <ele>275</ele>
        <time>2011-04-23T16:07:06Z</time>
      </trkpt>
      <trkpt lat="43.56178" lon="3.31142">
        <ele>273</ele>
        <time>2011-04-23T16:07:17Z</time>
      </trkpt>
      <trkpt lat="43.56213" lon="3.31195">
        <ele>270</ele>
        <time>2011-04-23T16:07:45Z</time>
      </trkpt>
      <trkpt lat="43.5626" lon="3.31253">
        <ele>277</ele>
        <time>2011-04-23T16:08:26Z</time>
      </trkpt>
      <trkpt lat="43.56302" lon="3.31275">
        <ele>279</ele>
        <time>2011-04-23T16:08:52Z</time>
      </trkpt>
      <trkpt lat="43.56327" lon="3.3131">
        <ele>281</ele>
        <time>2011-04-23T16:09:01Z</time>
      </trkpt>
      <trkpt lat="43.56357" lon="3.31318">
        <ele>279</ele>
        <time>2011-04-23T16:09:08Z</time>
      </trkpt>
      <trkpt lat="43.56368" lon="3.31357">
        <ele>282</ele>
        <time>2011-04-23T16:09:20Z</time>
      </trkpt>
      <trkpt lat="43.56418" lon="3.31373">
        <ele>276</ele>
        <time>2011-04-23T16:09:30Z</time>
      </trkpt>
      <trkpt lat="43.56512" lon="3.31373">
        <ele>273</ele>
        <time>2011-04-23T16:09:57Z</time>
      </trkpt>
      <trkpt lat="43.56578" lon="3.314">
        <ele>276</ele>
        <time>2011-04-23T16:10:17Z</time>
      </trkpt>
      <trkpt lat="43.566" lon="3.3141">
        <ele>279</ele>
        <time>2011-04-23T16:10:45Z</time>
      </trkpt>
      <trkpt lat="43.56635" lon="3.314">
        <ele>281</ele>
        <time>2011-04-23T16:11:21Z</time>
      </trkpt>
      <trkpt lat="43.56697" lon="3.314">
        <ele>288</ele>
        <time>2011-04-23T16:11:43Z</time>
      </trkpt>
      <trkpt lat="43.56725" lon="3.31403">
        <ele>290</ele>
        <time>2011-04-23T16:11:57Z</time>
      </trkpt>
      <trkpt lat="43.56747" lon="3.31388">
        <ele>290</ele>
        <time>2011-04-23T16:12:15Z</time>
      </trkpt>
      <trkpt lat="43.56775" lon="3.3138">
        <ele>295</ele>
        <time>2011-04-23T16:12:30Z</time>
      </trkpt>
      <trkpt lat="43.56802" lon="3.31385">
        <ele>296</ele>
        <time>2011-04-23T16:12:42Z</time>
      </trkpt>
      <trkpt lat="43.56848" lon="3.31383">
        <ele>299</ele>
        <time>2011-04-23T16:12:56Z</time>
      </trkpt>
      <trkpt lat="43.56905" lon="3.31352">
        <ele>294</ele>
        <time>2011-04-23T16:13:12Z</time>
      </trkpt>
      <trkpt lat="43.56952" lon="3.31317">
        <ele>289</ele>
        <time>2011-04-23T16:13:25Z</time>
      </trkpt>
      <trkpt lat="43.56972" lon="3.31313">
        <ele>291</ele>
        <time>2011-04-23T16:13:51Z</time>
      </trkpt>
      <trkpt lat="43.57018" lon="3.31297">
        <ele>299</ele>
        <time>2011-04-23T16:14:13Z</time>
      </trkpt>
      <trkpt lat="43.57063" lon="3.31285">
        <ele>301</ele>
        <time>2011-04-23T16:15:36Z</time>
      </trkpt>
      <trkpt lat="43.57077" lon="3.31312">
        <ele>304</ele>
        <time>2011-04-23T16:15:52Z</time>
      </trkpt>
      <trkpt lat="43.57092" lon="3.31342">
        <ele>311</ele>
        <time>2011-04-23T16:16:09Z</time>
      </trkpt>
      <trkpt lat="43.57108" lon="3.31363">
        <ele>311</ele>
        <time>2011-04-23T16:16:31Z</time>
      </trkpt>
      <trkpt lat="43.57132" lon="3.3138">
        <ele>312</ele>
        <time>2011-04-23T16:17:15Z</time>
      </trkpt>
      <trkpt lat="43.57152" lon="3.31392">
        <ele>313</ele>
        <time>2011-04-23T16:17:45Z</time>
      </trkpt>
      <trkpt lat="43.57183" lon="3.31402">
        <ele>319</ele>
        <time>2011-04-23T16:18:03Z</time>
      </trkpt>
      <trkpt lat="43.57243" lon="3.31403">
        <ele>321</ele>
        <time>2011-04-23T16:18:27Z</time>
      </trkpt>
      <trkpt lat="43.57272" lon="3.31398">
        <ele>325</ele>
        <time>2011-04-23T16:18:37Z</time>
      </trkpt>
      <trkpt lat="43.5732" lon="3.31405">
        <ele>326</ele>
        <time>2011-04-23T16:19:05Z</time>
      </trkpt>
      <trkpt lat="43.57337" lon="3.31428">
        <ele>328</ele>
        <time>2011-04-23T16:19:21Z</time>
      </trkpt>
      <trkpt lat="43.57352" lon="3.31455">
        <ele>330</ele>
        <time>2011-04-23T16:19:33Z</time>
      </trkpt>
      <trkpt lat="43.57365" lon="3.31475">
        <ele>331</ele>
        <time>2011-04-23T16:19:45Z</time>
      </trkpt>
      <trkpt lat="43.57392" lon="3.31437">
        <ele>334</ele>
        <time>2011-04-23T16:20:04Z</time>
      </trkpt>
      <trkpt lat="43.57428" lon="3.31398">
        <ele>338</ele>
        <time>2011-04-23T16:21:05Z</time>
      </trkpt>
      <trkpt lat="43.57642" lon="3.31348">
        <ele>347</ele>
        <time>2011-04-23T16:21:10Z</time>
      </trkpt>
      <trkpt lat="43.57678" lon="3.31352">
        <ele>349</ele>
        <time>2011-04-23T16:21:29Z</time>
      </trkpt>
      <trkpt lat="43.57695" lon="3.31362">
        <ele>351</ele>
        <time>2011-04-23T16:21:42Z</time>
      </trkpt>
      <trkpt lat="43.57713" lon="3.31367">
        <ele>352</ele>
        <time>2011-04-23T16:21:54Z</time>
      </trkpt>
      <trkpt lat="43.57733" lon="3.31372">
        <ele>353</ele>
        <time>2011-04-23T16:22:14Z</time>
      </trkpt>
      <trkpt lat="43.57753" lon="3.31378">
        <ele>353</ele>
        <time>2011-04-23T16:22:46Z</time>
      </trkpt>
      <trkpt lat="43.57782" lon="3.31362">
        <ele>354</ele>
        <time>2011-04-23T16:23:25Z</time>
      </trkpt>
      <trkpt lat="43.57793" lon="3.31335">
        <ele>355</ele>
        <time>2011-04-23T16:23:36Z</time>
      </trkpt>
      <trkpt lat="43.57807" lon="3.31315">
        <ele>358</ele>
        <time>2011-04-23T16:23:47Z</time>
      </trkpt>
      <trkpt lat="43.57893" lon="3.31202">
        <ele>363</ele>
        <time>2011-04-23T16:24:33Z</time>
      </trkpt>
      <trkpt lat="43.57895" lon="3.31173">
        <ele>363</ele>
        <time>2011-04-23T16:24:45Z</time>
      </trkpt>
      <trkpt lat="43.5792" lon="3.31133">
        <ele>357</ele>
        <time>2011-04-23T16:24:59Z</time>
      </trkpt>
      <trkpt lat="43.57935" lon="3.31077">
        <ele>362</ele>
        <time>2011-04-23T16:25:12Z</time>
      </trkpt>
      <trkpt lat="43.5794" lon="3.31027">
        <ele>360</ele>
        <time>2011-04-23T16:25:18Z</time>
      </trkpt>
      <trkpt lat="43.57948" lon="3.30998">
        <ele>362</ele>
        <time>2011-04-23T16:25:35Z</time>
      </trkpt>
      <trkpt lat="43.57972" lon="3.30945">
        <ele>361</ele>
        <time>2011-04-23T16:25:51Z</time>
      </trkpt>
      <trkpt lat="43.57982" lon="3.30908">
        <ele>364</ele>
        <time>2011-04-23T16:26:01Z</time>
      </trkpt>
      <trkpt lat="43.58002" lon="3.30867">
        <ele>374</ele>
        <time>2011-04-23T16:26:21Z</time>
      </trkpt>
      <trkpt lat="43.58025" lon="3.3084">
        <ele>376</ele>
        <time>2011-04-23T16:26:43Z</time>
      </trkpt>
      <trkpt lat="43.58043" lon="3.30817">
        <ele>380</ele>
        <time>2011-04-23T16:27:02Z</time>
      </trkpt>
      <trkpt lat="43.58062" lon="3.30803">
        <ele>381</ele>
        <time>2011-04-23T16:27:18Z</time>
      </trkpt>
      <trkpt lat="43.58073" lon="3.30763">
        <ele>382</ele>
        <time>2011-04-23T16:31:19Z</time>
      </trkpt>
      <trkpt lat="43.5811" lon="3.30757">
        <ele>390</ele>
        <time>2011-04-23T16:32:03Z</time>
      </trkpt>
      <trkpt lat="43.58113" lon="3.30782">
        <ele>391</ele>
        <time>2011-04-23T16:32:16Z</time>
      </trkpt>
      <trkpt lat="43.58147" lon="3.30772">
        <ele>394</ele>
        <time>2011-04-23T16:32:52Z</time>
      </trkpt>
      <trkpt lat="43.58187" lon="3.30753">
        <ele>402</ele>
        <time>2011-04-23T16:33:40Z</time>
      </trkpt>
      <trkpt lat="43.58225" lon="3.30725">
        <ele>409</ele>
        <time>2011-04-23T16:35:04Z</time>
      </trkpt>
      <trkpt lat="43.58247" lon="3.30685">
        <ele>413</ele>
        <time>2011-04-23T16:35:37Z</time>
      </trkpt>
      <trkpt lat="43.58268" lon="3.30638">
        <ele>420</ele>
        <time>2011-04-23T16:36:04Z</time>
      </trkpt>
      <trkpt lat="43.58287" lon="3.30528">
        <ele>418</ele>
        <time>2011-04-23T16:36:30Z</time>
      </trkpt>
      <trkpt lat="43.58282" lon="3.30478">
        <ele>417</ele>
        <time>2011-04-23T16:36:44Z</time>
      </trkpt>
      <trkpt lat="43.58288" lon="3.30418">
        <ele>418</ele>
        <time>2011-04-23T16:37:01Z</time>
      </trkpt>
      <trkpt lat="43.58287" lon="3.30347">
        <ele>423</ele>
        <time>2011-04-23T16:37:26Z</time>
      </trkpt>
      <trkpt lat="43.58305" lon="3.30308">
        <ele>428</ele>
        <time>2011-04-23T16:37:48Z</time>
      </trkpt>
      <trkpt lat="43.58315" lon="3.30288">
        <ele>429</ele>
        <time>2011-04-23T16:38:00Z</time>
      </trkpt>
      <trkpt lat="43.58338" lon="3.3027">
        <ele>437</ele>
        <time>2011-04-23T16:38:17Z</time>
      </trkpt>
      <trkpt lat="43.58455" lon="3.30218">
        <ele>445</ele>
        <time>2011-04-23T16:39:02Z</time>
      </trkpt>
      <trkpt lat="43.58487" lon="3.30173">
        <ele>446</ele>
        <time>2011-04-23T16:39:14Z</time>
      </trkpt>
      <trkpt lat="43.58513" lon="3.30138">
        <ele>446</ele>
        <time>2011-04-23T16:39:27Z</time>
      </trkpt>
      <trkpt lat="43.58537" lon="3.30108">
        <ele>447</ele>
        <time>2011-04-23T16:39:38Z</time>
      </trkpt>
      <trkpt lat="43.58553" lon="3.30075">
        <ele>451</ele>
        <time>2011-04-23T16:39:49Z</time>
      </trkpt>
      <trkpt lat="43.58565" lon="3.30043">
        <ele>452</ele>
        <time>2011-04-23T16:39:55Z</time>
      </trkpt>
      <trkpt lat="43.5859" lon="3.29987">
        <ele>448</ele>
        <time>2011-04-23T16:40:11Z</time>
      </trkpt>
      <trkpt lat="43.58607" lon="3.29978">
        <ele>447</ele>
        <time>2011-04-23T16:40:17Z</time>
      </trkpt>
      <trkpt lat="43.58597" lon="3.29927">
        <ele>448</ele>
        <time>2011-04-23T16:40:30Z</time>
      </trkpt>
      <trkpt lat="43.58603" lon="3.2985">
        <ele>445</ele>
        <time>2011-04-23T16:40:40Z</time>
      </trkpt>
      <trkpt lat="43.58597" lon="3.29783">
        <ele>438</ele>
        <time>2011-04-23T16:40:54Z</time>
      </trkpt>
      <trkpt lat="43.5854" lon="3.29673">
        <ele>445</ele>
        <time>2011-04-23T16:41:19Z</time>
      </trkpt>
      <trkpt lat="43.58533" lon="3.29625">
        <ele>438</ele>
        <time>2011-04-23T16:41:24Z</time>
      </trkpt>
      <trkpt lat="43.58557" lon="3.29487">
        <ele>428</ele>
        <time>2011-04-23T16:41:39Z</time>
      </trkpt>
      <trkpt lat="43.58538" lon="3.29405">
        <ele>432</ele>
        <time>2011-04-23T16:41:46Z</time>
      </trkpt>
      <trkpt lat="43.58592" lon="3.29302">
        <ele>414</ele>
        <time>2011-04-23T16:42:01Z</time>
      </trkpt>
      <trkpt lat="43.58607" lon="3.29217">
        <ele>413</ele>
        <time>2011-04-23T16:42:11Z</time>
      </trkpt>
      <trkpt lat="43.58542" lon="3.29068">
        <ele>409</ele>
        <time>2011-04-23T16:42:30Z</time>
      </trkpt>
      <trkpt lat="43.5853" lon="3.29015">
        <ele>406</ele>
        <time>2011-04-23T16:42:35Z</time>
      </trkpt>
      <trkpt lat="43.58543" lon="3.28948">
        <ele>398</ele>
        <time>2011-04-23T16:42:54Z</time>
      </trkpt>
      <trkpt lat="43.58543" lon="3.28858">
        <ele>395</ele>
        <time>2011-04-23T16:43:03Z</time>
      </trkpt>
      <trkpt lat="43.58537" lon="3.2878">
        <ele>393</ele>
        <time>2011-04-23T16:43:19Z</time>
      </trkpt>
      <trkpt lat="43.58498" lon="3.28853">
        <ele>384</ele>
        <time>2011-04-23T16:44:41Z</time>
      </trkpt>
      <trkpt lat="43.58455" lon="3.28948">
        <ele>387</ele>
        <time>2011-04-23T16:45:04Z</time>
      </trkpt>
      <trkpt lat="43.58403" lon="3.28985">
        <ele>377</ele>
        <time>2011-04-23T16:45:14Z</time>
      </trkpt>
      <trkpt lat="43.58388" lon="3.28983">
        <ele>374</ele>
        <time>2011-04-23T16:45:23Z</time>
      </trkpt>
      <trkpt lat="43.58328" lon="3.28955">
        <ele>356</ele>
        <time>2011-04-23T16:45:54Z</time>
      </trkpt>
      <trkpt lat="43.58305" lon="3.28955">
        <ele>355</ele>
        <time>2011-04-23T16:46:45Z</time>
      </trkpt>
      <trkpt lat="43.58243" lon="3.28965">
        <ele>344</ele>
        <time>2011-04-23T16:47:03Z</time>
      </trkpt>
      <trkpt lat="43.58223" lon="3.28957">
        <ele>343</ele>
        <time>2011-04-23T16:47:15Z</time>
      </trkpt>
      <trkpt lat="43.58202" lon="3.28953">
        <ele>341</ele>
        <time>2011-04-23T16:47:28Z</time>
      </trkpt>
      <trkpt lat="43.58195" lon="3.28935">
        <ele>339</ele>
        <time>2011-04-23T16:47:50Z</time>
      </trkpt>
      <trkpt lat="43.58183" lon="3.28927">
        <ele>338</ele>
        <time>2011-04-23T16:48:21Z</time>
      </trkpt>
      <trkpt lat="43.58158" lon="3.28918">
        <ele>330</ele>
        <time>2011-04-23T16:48:59Z</time>
      </trkpt>
      <trkpt lat="43.58143" lon="3.28912">
        <ele>327</ele>
        <time>2011-04-23T16:49:20Z</time>
      </trkpt>
      <trkpt lat="43.58103" lon="3.28892">
        <ele>321</ele>
        <time>2011-04-23T16:50:07Z</time>
      </trkpt>
      <trkpt lat="43.58085" lon="3.28885">
        <ele>320</ele>
        <time>2011-04-23T16:50:31Z</time>
      </trkpt>
      <trkpt lat="43.58072" lon="3.2888">
        <ele>308</ele>
        <time>2011-04-23T16:50:57Z</time>
      </trkpt>
      <trkpt lat="43.58082" lon="3.28912">
        <ele>310</ele>
        <time>2011-04-23T16:52:00Z</time>
      </trkpt>
      <trkpt lat="43.58063" lon="3.28967">
        <ele>301</ele>
        <time>2011-04-23T16:52:27Z</time>
      </trkpt>
      <trkpt lat="43.5806" lon="3.28993">
        <ele>302</ele>
        <time>2011-04-23T16:52:41Z</time>
      </trkpt>
      <trkpt lat="43.5807" lon="3.29017">
        <ele>303</ele>
        <time>2011-04-23T16:53:07Z</time>
      </trkpt>
      <trkpt lat="43.58048" lon="3.28988">
        <ele>300</ele>
        <time>2011-04-23T16:55:32Z</time>
      </trkpt>
      <trkpt lat="43.58043" lon="3.29022">
        <ele>299</ele>
        <time>2011-04-23T16:55:54Z</time>
      </trkpt>
      <trkpt lat="43.58052" lon="3.29055">
        <ele>301</ele>
        <time>2011-04-23T16:56:00Z</time>
      </trkpt>
      <trkpt lat="43.58005" lon="3.29073">
        <ele>295</ele>
        <time>2011-04-23T16:56:18Z</time>
      </trkpt>
      <trkpt lat="43.5798" lon="3.29105">
        <ele>288</ele>
        <time>2011-04-23T16:56:33Z</time>
      </trkpt>
      <trkpt lat="43.57978" lon="3.29137">
        <ele>287</ele>
        <time>2011-04-23T16:56:45Z</time>
      </trkpt>
      <trkpt lat="43.5801" lon="3.29163">
        <ele>293</ele>
        <time>2011-04-23T16:56:57Z</time>
      </trkpt>
      <trkpt lat="43.58018" lon="3.29205">
        <ele>299</ele>
        <time>2011-04-23T16:57:07Z</time>
      </trkpt>
      <trkpt lat="43.58032" lon="3.29212">
        <ele>300</ele>
        <time>2011-04-23T16:57:29Z</time>
      </trkpt>
      <trkpt lat="43.58047" lon="3.29218">
        <ele>302</ele>
        <time>2011-04-23T16:58:05Z</time>
      </trkpt>
      <trkpt lat="43.58075" lon="3.29218">
        <ele>304</ele>
        <time>2011-04-23T16:59:11Z</time>
      </trkpt>
      <trkpt lat="43.5806" lon="3.2924">
        <ele>305</ele>
        <time>2011-04-23T17:01:47Z</time>
      </trkpt>
      <trkpt lat="43.58042" lon="3.29265">
        <ele>310</ele>
        <time>2011-04-23T17:02:06Z</time>
      </trkpt>
      <trkpt lat="43.58038" lon="3.29292">
        <ele>312</ele>
        <time>2011-04-23T17:02:32Z</time>
      </trkpt>
      <trkpt lat="43.58032" lon="3.2933">
        <ele>313</ele>
        <time>2011-04-23T17:02:54Z</time>
      </trkpt>
      <trkpt lat="43.5803" lon="3.29397">
        <ele>317</ele>
        <time>2011-04-23T17:03:12Z</time>
      </trkpt>
      <trkpt lat="43.58028" lon="3.29427">
        <ele>317</ele>
        <time>2011-04-23T17:03:38Z</time>
      </trkpt>
      <trkpt lat="43.58023" lon="3.29462">
        <ele>318</ele>
        <time>2011-04-23T17:03:46Z</time>
      </trkpt>
      <trkpt lat="43.58005" lon="3.29502">
        <ele>310</ele>
        <time>2011-04-23T17:04:00Z</time>
      </trkpt>
      <trkpt lat="43.57998" lon="3.29532">
        <ele>307</ele>
        <time>2011-04-23T17:04:09Z</time>
      </trkpt>
      <trkpt lat="43.5801" lon="3.29602">
        <ele>322</ele>
        <time>2011-04-23T17:04:34Z</time>
      </trkpt>
      <trkpt lat="43.58053" lon="3.2965">
        <ele>326</ele>
        <time>2011-04-23T17:04:47Z</time>
      </trkpt>
      <trkpt lat="43.58095" lon="3.29665">
        <ele>338</ele>
        <time>2011-04-23T17:04:56Z</time>
      </trkpt>
      <trkpt lat="43.58125" lon="3.29688">
        <ele>333</ele>
        <time>2011-04-23T17:05:06Z</time>
      </trkpt>
      <trkpt lat="43.58122" lon="3.29742">
        <ele>326</ele>
        <time>2011-04-23T17:05:19Z</time>
      </trkpt>
      <trkpt lat="43.58048" lon="3.29842">
        <ele>308</ele>
        <time>2011-04-23T17:05:49Z</time>
      </trkpt>
      <trkpt lat="43.58038" lon="3.29872">
        <ele>310</ele>
        <time>2011-04-23T17:06:02Z</time>
      </trkpt>
      <trkpt lat="43.58018" lon="3.29925">
        <ele>320</ele>
        <time>2011-04-23T17:06:29Z</time>
      </trkpt>
      <trkpt lat="43.58018" lon="3.29958">
        <ele>325</ele>
        <time>2011-04-23T17:06:47Z</time>
      </trkpt>
      <trkpt lat="43.58023" lon="3.2998">
        <ele>327</ele>
        <time>2011-04-23T17:06:57Z</time>
      </trkpt>
      <trkpt lat="43.58048" lon="3.30018">
        <ele>332</ele>
        <time>2011-04-23T17:07:14Z</time>
      </trkpt>
      <trkpt lat="43.58072" lon="3.30037">
        <ele>334</ele>
        <time>2011-04-23T17:07:29Z</time>
      </trkpt>
      <trkpt lat="43.58105" lon="3.30077">
        <ele>348</ele>
        <time>2011-04-23T17:07:44Z</time>
      </trkpt>
      <trkpt lat="43.58108" lon="3.30108">
        <ele>345</ele>
        <time>2011-04-23T17:07:58Z</time>
      </trkpt>
      <trkpt lat="43.58112" lon="3.30142">
        <ele>345</ele>
        <time>2011-04-23T17:08:09Z</time>
      </trkpt>
      <trkpt lat="43.58085" lon="3.3021">
        <ele>344</ele>
        <time>2011-04-23T17:08:28Z</time>
      </trkpt>
      <trkpt lat="43.58072" lon="3.30255">
        <ele>335</ele>
        <time>2011-04-23T17:08:51Z</time>
      </trkpt>
      <trkpt lat="43.58067" lon="3.30293">
        <ele>334</ele>
        <time>2011-04-23T17:09:11Z</time>
      </trkpt>
      <trkpt lat="43.5807" lon="3.3033">
        <ele>342</ele>
        <time>2011-04-23T17:09:38Z</time>
      </trkpt>
      <trkpt lat="43.5809" lon="3.30373">
        <ele>357</ele>
        <time>2011-04-23T17:09:56Z</time>
      </trkpt>
      <trkpt lat="43.58125" lon="3.30395">
        <ele>362</ele>
        <time>2011-04-23T17:10:17Z</time>
      </trkpt>
      <trkpt lat="43.58147" lon="3.30403">
        <ele>367</ele>
        <time>2011-04-23T17:10:31Z</time>
      </trkpt>
      <trkpt lat="43.58162" lon="3.30438">
        <ele>363</ele>
        <time>2011-04-23T17:10:52Z</time>
      </trkpt>
      <trkpt lat="43.58163" lon="3.30475">
        <ele>360</ele>
        <time>2011-04-23T17:11:09Z</time>
      </trkpt>
      <trkpt lat="43.58167" lon="3.30507">
        <ele>374</ele>
        <time>2011-04-23T17:11:27Z</time>
      </trkpt>
      <trkpt lat="43.58163" lon="3.30545">
        <ele>360</ele>
        <time>2011-04-23T17:11:47Z</time>
      </trkpt>
      <trkpt lat="43.5816" lon="3.30573">
        <ele>367</ele>
        <time>2011-04-23T17:12:05Z</time>
      </trkpt>
      <trkpt lat="43.58157" lon="3.30603">
        <ele>372</ele>
        <time>2011-04-23T17:12:26Z</time>
      </trkpt>
      <trkpt lat="43.58142" lon="3.30642">
        <ele>374</ele>
        <time>2011-04-23T17:12:44Z</time>
      </trkpt>
      <trkpt lat="43.58135" lon="3.30683">
        <ele>386</ele>
        <time>2011-04-23T17:13:08Z</time>
      </trkpt>
      <trkpt lat="43.58133" lon="3.30708">
        <ele>387</ele>
        <time>2011-04-23T17:13:21Z</time>
      </trkpt>
      <trkpt lat="43.58135" lon="3.30743">
        <ele>390</ele>
        <time>2011-04-23T17:13:39Z</time>
      </trkpt>
      <trkpt lat="43.58165" lon="3.30785">
        <ele>394</ele>
        <time>2011-04-23T17:13:52Z</time>
      </trkpt>
      <trkpt lat="43.58213" lon="3.30812">
        <ele>402</ele>
        <time>2011-04-23T17:14:15Z</time>
      </trkpt>
      <trkpt lat="43.58237" lon="3.30795">
        <ele>404</ele>
        <time>2011-04-23T17:14:39Z</time>
      </trkpt>
      <trkpt lat="43.58262" lon="3.3078">
        <ele>406</ele>
        <time>2011-04-23T17:14:53Z</time>
      </trkpt>
      <trkpt lat="43.58277" lon="3.30768">
        <ele>406</ele>
        <time>2011-04-23T17:15:02Z</time>
      </trkpt>
      <trkpt lat="43.58308" lon="3.30742">
        <ele>410</ele>
        <time>2011-04-23T17:15:13Z</time>
      </trkpt>
      <trkpt lat="43.58348" lon="3.30738">
        <ele>405</ele>
        <time>2011-04-23T17:15:24Z</time>
      </trkpt>
      <trkpt lat="43.5838" lon="3.30735">
        <ele>405</ele>
        <time>2011-04-23T17:15:25Z</time>
      </trkpt>
      <trkpt lat="43.58458" lon="3.3082">
        <ele>389</ele>
        <time>2011-04-23T17:15:44Z</time>
      </trkpt>
      <trkpt lat="43.58485" lon="3.30858">
        <ele>382</ele>
        <time>2011-04-23T17:15:53Z</time>
      </trkpt>
      <trkpt lat="43.58495" lon="3.30978">
        <ele>370</ele>
        <time>2011-04-23T17:16:15Z</time>
      </trkpt>
      <trkpt lat="43.58485" lon="3.31057">
        <ele>362</ele>
        <time>2011-04-23T17:16:22Z</time>
      </trkpt>
      <trkpt lat="43.58482" lon="3.31107">
        <ele>357</ele>
        <time>2011-04-23T17:16:33Z</time>
      </trkpt>
      <trkpt lat="43.5844" lon="3.30982">
        <ele>366</ele>
        <time>2011-04-23T17:16:46Z</time>
      </trkpt>
      <trkpt lat="43.58403" lon="3.30942">
        <ele>368</ele>
        <time>2011-04-23T17:17:00Z</time>
      </trkpt>
      <trkpt lat="43.58392" lon="3.30957">
        <ele>367</ele>
        <time>2011-04-23T17:17:50Z</time>
      </trkpt>
      <trkpt lat="43.58375" lon="3.3097">
        <ele>368</ele>
        <time>2011-04-23T17:40:15Z</time>
      </trkpt>
      <trkpt lat="43.58352" lon="3.31063">
        <ele>361</ele>
        <time>2011-04-23T17:40:41Z</time>
      </trkpt>
      <trkpt lat="43.58367" lon="3.31153">
        <ele>355</ele>
        <time>2011-04-23T17:40:49Z</time>
      </trkpt>
      <trkpt lat="43.58373" lon="3.31173">
        <ele>351</ele>
        <time>2011-04-23T17:40:58Z</time>
      </trkpt>
      <trkpt lat="43.58392" lon="3.31225">
        <ele>347</ele>
        <time>2011-04-23T17:41:51Z</time>
      </trkpt>
      <trkpt lat="43.5824" lon="3.31503">
        <ele>313</ele>
        <time>2011-04-23T17:41:57Z</time>
      </trkpt>
      <trkpt lat="43.5824" lon="3.31547">
        <ele>316</ele>
        <time>2011-04-23T17:42:16Z</time>
      </trkpt>
      <trkpt lat="43.58175" lon="3.31642">
        <ele>312</ele>
        <time>2011-04-23T17:42:29Z</time>
      </trkpt>
      <trkpt lat="43.57988" lon="3.31785">
        <ele>287</ele>
        <time>2011-04-23T17:43:15Z</time>
      </trkpt>
      <trkpt lat="43.57878" lon="3.31848">
        <ele>281</ele>
        <time>2011-04-23T17:43:33Z</time>
      </trkpt>
      <trkpt lat="43.57857" lon="3.31907">
        <ele>280</ele>
        <time>2011-04-23T17:43:53Z</time>
      </trkpt>
      <trkpt lat="43.57835" lon="3.31942">
        <ele>277</ele>
        <time>2011-04-23T17:44:02Z</time>
      </trkpt>
      <trkpt lat="43.578" lon="3.32052">
        <ele>276</ele>
        <time>2011-04-23T17:44:20Z</time>
      </trkpt>
      <trkpt lat="43.57748" lon="3.32112">
        <ele>274</ele>
        <time>2011-04-23T17:44:48Z</time>
      </trkpt>
      <trkpt lat="43.57693" lon="3.32185">
        <ele>269</ele>
        <time>2011-04-23T17:45:02Z</time>
      </trkpt>
      <trkpt lat="43.5768" lon="3.32193">
        <ele>269</ele>
        <time>2011-04-23T17:45:18Z</time>
      </trkpt>
      <trkpt lat="43.57707" lon="3.32167">
        <ele>268</ele>
        <time>2011-04-23T17:47:22Z</time>
      </trkpt>
      <trkpt lat="43.57688" lon="3.3219">
        <ele>269</ele>
        <time>2011-04-23T17:47:45Z</time>
      </trkpt>
      <trkpt lat="43.57702" lon="3.32208">
        <ele>268</ele>
        <time>2011-04-23T17:47:58Z</time>
      </trkpt>
      <trkpt lat="43.57698" lon="3.32228">
        <ele>268</ele>
        <time>2011-04-23T17:48:16Z</time>
      </trkpt>
      <trkpt lat="43.57707" lon="3.32242">
        <ele>268</ele>
        <time>2011-04-23T17:49:44Z</time>
      </trkpt>
      <trkpt lat="43.57713" lon="3.32203">
        <ele>269</ele>
        <time>2011-04-23T17:49:59Z</time>
      </trkpt>
      <trkpt lat="43.57705" lon="3.3219">
        <ele>268</ele>
        <time>2011-04-23T17:51:28Z</time>
      </trkpt>
      <trkpt lat="43.57693" lon="3.32197">
        <ele>268</ele>
        <time>2011-04-23T18:00:30Z</time>
      </trkpt>
      <trkpt lat="43.57677" lon="3.32217">
        <ele>267</ele>
        <time>2011-04-23T18:01:25Z</time>
      </trkpt>
      <trkpt lat="43.57653" lon="3.32262">
        <ele>263</ele>
        <time>2011-04-23T18:01:37Z</time>
      </trkpt>
      <trkpt lat="43.57618" lon="3.32303">
        <ele>263</ele>
        <time>2011-04-23T18:02:32Z</time>
      </trkpt>
      <trkpt lat="43.57552" lon="3.32375">
        <ele>260</ele>
        <time>2011-04-23T18:02:46Z</time>
      </trkpt>
      <trkpt lat="43.57533" lon="3.32385">
        <ele>259</ele>
        <time>2011-04-23T18:02:52Z</time>
      </trkpt>
      <trkpt lat="43.57385" lon="3.32493">
        <ele>254</ele>
        <time>2011-04-23T18:03:29Z</time>
      </trkpt>
      <trkpt lat="43.57347" lon="3.32505">
        <ele>258</ele>
        <time>2011-04-23T18:03:38Z</time>
      </trkpt>
      <trkpt lat="43.57302" lon="3.3254">
        <ele>255</ele>
        <time>2011-04-23T18:03:47Z</time>
      </trkpt>
      <trkpt lat="43.57275" lon="3.32553">
        <ele>255</ele>
        <time>2011-04-23T18:03:53Z</time>
      </trkpt>
      <trkpt lat="43.57157" lon="3.32662">
        <ele>251</ele>
        <time>2011-04-23T18:04:22Z</time>
      </trkpt>
      <trkpt lat="43.57152" lon="3.3277">
        <ele>254</ele>
        <time>2011-04-23T18:04:28Z</time>
      </trkpt>
      <trkpt lat="43.57183" lon="3.32798">
        <ele>261</ele>
        <time>2011-04-23T18:04:39Z</time>
      </trkpt>
      <trkpt lat="43.57238" lon="3.32787">
        <ele>264</ele>
        <time>2011-04-23T18:04:47Z</time>
      </trkpt>
      <trkpt lat="43.57218" lon="3.32858">
        <ele>260</ele>
        <time>2011-04-23T18:05:02Z</time>
      </trkpt>
      <trkpt lat="43.57202" lon="3.32985">
        <ele>253</ele>
        <time>2011-04-23T18:05:10Z</time>
      </trkpt>
      <trkpt lat="43.57217" lon="3.3311">
        <ele>248</ele>
        <time>2011-04-23T18:05:27Z</time>
      </trkpt>
      <trkpt lat="43.5725" lon="3.33138">
        <ele>249</ele>
        <time>2011-04-23T18:05:36Z</time>
      </trkpt>
      <trkpt lat="43.57262" lon="3.33183">
        <ele>257</ele>
        <time>2011-04-23T18:05:42Z</time>
      </trkpt>
      <trkpt lat="43.57267" lon="3.33267">
        <ele>256</ele>
        <time>2011-04-23T18:05:55Z</time>
      </trkpt>
      <trkpt lat="43.57252" lon="3.33332">
        <ele>249</ele>
        <time>2011-04-23T18:06:01Z</time>
      </trkpt>
      <trkpt lat="43.5722" lon="3.33488">
        <ele>244</ele>
        <time>2011-04-23T18:06:18Z</time>
      </trkpt>
      <trkpt lat="43.57182" lon="3.33573">
        <ele>233</ele>
        <time>2011-04-23T18:06:28Z</time>
      </trkpt>
      <trkpt lat="43.57208" lon="3.33717">
        <ele>224</ele>
        <time>2011-04-23T18:06:38Z</time>
      </trkpt>
      <trkpt lat="43.57268" lon="3.33848">
        <ele>214</ele>
        <time>2011-04-23T18:06:48Z</time>
      </trkpt>
      <trkpt lat="43.57247" lon="3.33902">
        <ele>209</ele>
        <time>2011-04-23T18:06:57Z</time>
      </trkpt>
      <trkpt lat="43.5721" lon="3.33908">
        <ele>209</ele>
        <time>2011-04-23T18:07:11Z</time>
      </trkpt>
      <trkpt lat="43.57177" lon="3.3392">
        <ele>211</ele>
        <time>2011-04-23T18:07:20Z</time>
      </trkpt>
      <trkpt lat="43.57138" lon="3.33933">
        <ele>215</ele>
        <time>2011-04-23T18:07:35Z</time>
      </trkpt>
      <trkpt lat="43.57122" lon="3.33928">
        <ele>214</ele>
        <time>2011-04-23T18:07:44Z</time>
      </trkpt>
      <trkpt lat="43.57062" lon="3.33958">
        <ele>211</ele>
        <time>2011-04-23T18:08:07Z</time>
      </trkpt>
      <trkpt lat="43.5704" lon="3.33975">
        <ele>211</ele>
        <time>2011-04-23T18:08:15Z</time>
      </trkpt>
      <trkpt lat="43.57005" lon="3.34048">
        <ele>221</ele>
        <time>2011-04-23T18:08:33Z</time>
      </trkpt>
      <trkpt lat="43.57002" lon="3.34082">
        <ele>219</ele>
        <time>2011-04-23T18:09:13Z</time>
      </trkpt>
      <trkpt lat="43.56995" lon="3.34117">
        <ele>211</ele>
        <time>2011-04-23T18:09:22Z</time>
      </trkpt>
      <trkpt lat="43.56968" lon="3.34325">
        <ele>212</ele>
        <time>2011-04-23T18:09:47Z</time>
      </trkpt>
      <trkpt lat="43.56982" lon="3.34322">
        <ele>214</ele>
        <time>2011-04-23T18:09:54Z</time>
      </trkpt>
      <trkpt lat="43.56982" lon="3.34345">
        <ele>217</ele>
        <time>2011-04-23T18:10:04Z</time>
      </trkpt>
      <trkpt lat="43.56967" lon="3.3437">
        <ele>216</ele>
        <time>2011-04-23T18:10:13Z</time>
      </trkpt>
      <trkpt lat="43.56922" lon="3.3435">
        <ele>208</ele>
        <time>2011-04-23T18:10:26Z</time>
      </trkpt>
      <trkpt lat="43.56895" lon="3.34347">
        <ele>200</ele>
        <time>2011-04-23T18:10:31Z</time>
      </trkpt>
      <trkpt lat="43.56875" lon="3.34353">
        <ele>198</ele>
        <time>2011-04-23T18:10:45Z</time>
      </trkpt>
      <trkpt lat="43.5688" lon="3.34383">
        <ele>200</ele>
        <time>2011-04-23T18:11:03Z</time>
      </trkpt>
      <trkpt lat="43.56873" lon="3.34408">
        <ele>200</ele>
        <time>2011-04-23T18:11:17Z</time>
      </trkpt>
      <trkpt lat="43.56853" lon="3.34418">
        <ele>201</ele>
        <time>2011-04-23T18:11:29Z</time>
      </trkpt>
      <trkpt lat="43.56817" lon="3.34417">
        <ele>191</ele>
        <time>2011-04-23T18:11:46Z</time>
      </trkpt>
      <trkpt lat="43.5686" lon="3.34425">
        <ele>203</ele>
        <time>2011-04-23T18:12:22Z</time>
      </trkpt>
      <trkpt lat="43.56868" lon="3.34378">
        <ele>199</ele>
        <time>2011-04-23T18:12:39Z</time>
      </trkpt>
      <trkpt lat="43.56863" lon="3.3434">
        <ele>197</ele>
        <time>2011-04-23T18:12:48Z</time>
      </trkpt>
      <trkpt lat="43.56892" lon="3.34327">
        <ele>196</ele>
        <time>2011-04-23T18:13:06Z</time>
      </trkpt>
      <trkpt lat="43.56933" lon="3.34343">
        <ele>209</ele>
        <time>2011-04-23T18:13:28Z</time>
      </trkpt>
      <trkpt lat="43.56948" lon="3.34355">
        <ele>213</ele>
        <time>2011-04-23T18:13:42Z</time>
      </trkpt>
      <trkpt lat="43.56965" lon="3.34343">
        <ele>215</ele>
        <time>2011-04-23T18:13:54Z</time>
      </trkpt>
      <trkpt lat="43.56963" lon="3.34312">
        <ele>211</ele>
        <time>2011-04-23T18:14:09Z</time>
      </trkpt>
      <trkpt lat="43.5698" lon="3.34325">
        <ele>214</ele>
        <time>2011-04-23T18:14:24Z</time>
      </trkpt>
      <trkpt lat="43.56975" lon="3.34372">
        <ele>217</ele>
        <time>2011-04-23T18:14:42Z</time>
      </trkpt>
      <trkpt lat="43.56945" lon="3.34398">
        <ele>215</ele>
        <time>2011-04-23T18:14:57Z</time>
      </trkpt>
      <trkpt lat="43.56923" lon="3.34405">
        <ele>214</ele>
        <time>2011-04-23T18:15:07Z</time>
      </trkpt>
      <trkpt lat="43.56925" lon="3.34438">
        <ele>218</ele>
        <time>2011-04-23T18:15:20Z</time>
      </trkpt>
      <trkpt lat="43.56907" lon="3.34507">
        <ele>218</ele>
        <time>2011-04-23T18:15:44Z</time>
      </trkpt>
      <trkpt lat="43.56907" lon="3.34532">
        <ele>219</ele>
        <time>2011-04-23T18:15:55Z</time>
      </trkpt>
      <trkpt lat="43.5692" lon="3.34533">
        <ele>223</ele>
        <time>2011-04-23T18:16:11Z</time>
      </trkpt>
      <trkpt lat="43.56928" lon="3.34548">
        <ele>224</ele>
        <time>2011-04-23T18:16:37Z</time>
      </trkpt>
      <trkpt lat="43.5696" lon="3.34547">
        <ele>224</ele>
        <time>2011-04-23T18:17:23Z</time>
      </trkpt>
      <trkpt lat="43.56913" lon="3.34558">
        <ele>222</ele>
        <time>2011-04-23T18:18:01Z</time>
      </trkpt>
      <trkpt lat="43.56918" lon="3.34592">
        <ele>226</ele>
        <time>2011-04-23T18:18:19Z</time>
      </trkpt>
      <trkpt lat="43.56918" lon="3.34642">
        <ele>229</ele>
        <time>2011-04-23T18:18:43Z</time>
      </trkpt>
      <trkpt lat="43.5693" lon="3.34678">
        <ele>233</ele>
        <time>2011-04-23T18:19:01Z</time>
      </trkpt>
      <trkpt lat="43.56927" lon="3.34702">
        <ele>232</ele>
        <time>2011-04-23T18:19:18Z</time>
      </trkpt>
      <trkpt lat="43.56925" lon="3.3475">
        <ele>244</ele>
        <time>2011-04-23T18:19:42Z</time>
      </trkpt>
      <trkpt lat="43.56923" lon="3.3479">
        <ele>237</ele>
        <time>2011-04-23T18:19:54Z</time>
      </trkpt>
      <trkpt lat="43.56927" lon="3.34815">
        <ele>238</ele>
        <time>2011-04-23T18:20:01Z</time>
      </trkpt>
      <trkpt lat="43.56932" lon="3.3485">
        <ele>238</ele>
        <time>2011-04-23T18:20:09Z</time>
      </trkpt>
      <trkpt lat="43.56953" lon="3.35">
        <ele>217</ele>
        <time>2011-04-23T18:20:39Z</time>
      </trkpt>
      <trkpt lat="43.56943" lon="3.35077">
        <ele>211</ele>
        <time>2011-04-23T18:20:52Z</time>
      </trkpt>
      <trkpt lat="43.56982" lon="3.351">
        <ele>202</ele>
        <time>2011-04-23T18:21:09Z</time>
      </trkpt>
      <trkpt lat="43.57052" lon="3.3517">
        <ele>197</ele>
        <time>2011-04-23T18:21:38Z</time>
      </trkpt>
      <trkpt lat="43.57118" lon="3.35225">
        <ele>189</ele>
        <time>2011-04-23T18:22:02Z</time>
      </trkpt>
      <trkpt lat="43.57155" lon="3.3527">
        <ele>190</ele>
        <time>2011-04-23T18:22:40Z</time>
      </trkpt>
      <trkpt lat="43.57175" lon="3.35305">
        <ele>178</ele>
        <time>2011-04-23T18:24:54Z</time>
      </trkpt>
      <trkpt lat="43.57202" lon="3.35342">
        <ele>174</ele>
        <time>2011-04-23T18:25:05Z</time>
      </trkpt>
      <trkpt lat="43.57222" lon="3.3539">
        <ele>170</ele>
        <time>2011-04-23T18:25:14Z</time>
      </trkpt>
      <trkpt lat="43.57272" lon="3.35438">
        <ele>160</ele>
        <time>2011-04-23T18:25:39Z</time>
      </trkpt>
      <trkpt lat="43.57387" lon="3.35463">
        <ele>144</ele>
        <time>2011-04-23T18:26:26Z</time>
      </trkpt>
      <trkpt lat="43.57427" lon="3.35492">
        <ele>138</ele>
        <time>2011-04-23T18:26:39Z</time>
      </trkpt>
      <trkpt lat="43.5746" lon="3.35545">
        <ele>138</ele>
        <time>2011-04-23T18:27:02Z</time>
      </trkpt>
      <trkpt lat="43.57475" lon="3.35548">
        <ele>136</ele>
        <time>2011-04-23T18:27:27Z</time>
      </trkpt>
      <trkpt lat="43.57492" lon="3.35548">
        <ele>134</ele>
        <time>2011-04-23T18:28:49Z</time>
      </trkpt>
      <trkpt lat="43.5751" lon="3.35617">
        <ele>128</ele>
        <time>2011-04-23T18:29:23Z</time>
      </trkpt>
      <trkpt lat="43.57535" lon="3.35655">
        <ele>129</ele>
        <time>2011-04-23T18:29:38Z</time>
      </trkpt>
      <trkpt lat="43.57552" lon="3.3567">
        <ele>129</ele>
        <time>2011-04-23T18:29:44Z</time>
      </trkpt>
      <trkpt lat="43.57595" lon="3.3578">
        <ele>131</ele>
        <time>2011-04-23T18:30:21Z</time>
      </trkpt>
      <trkpt lat="43.57603" lon="3.35895">
        <ele>124</ele>
        <time>2011-04-23T18:30:46Z</time>
      </trkpt>
      <trkpt lat="43.57673" lon="3.35895">
        <ele>139</ele>
        <time>2011-04-23T18:31:11Z</time>
      </trkpt>
      <trkpt lat="43.57688" lon="3.35873">
        <ele>143</ele>
        <time>2011-04-23T18:31:23Z</time>
      </trkpt>
      <trkpt lat="43.57688" lon="3.35843">
        <ele>143</ele>
        <time>2011-04-23T18:31:55Z</time>
      </trkpt>
      <trkpt lat="43.57682" lon="3.35818">
        <ele>147</ele>
        <time>2011-04-23T18:32:19Z</time>
      </trkpt>
    </trkseg>
  </trk>
</gpx>